createdAt,value
2018-07-20T00:00:12.530Z,25.04
2018-07-20T00:01:12.524Z,24.99
2018-07-20T00:03:05.387Z,25.04
2018-07-20T00:04:05.373Z,25.04
2018-07-20T00:05:59.267Z,25.09
2018-07-20T00:06:59.253Z,25.04
2018-07-20T00:08:53.137Z,25.00
2018-07-20T00:09:53.134Z,25.06
2018-07-20T00:11:45.997Z,25.11
2018-07-20T00:12:45.981Z,25.07
2018-07-20T00:14:39.882Z,24.96
2018-07-20T00:15:39.857Z,25.09
2018-07-20T00:17:33.745Z,25.04
2018-07-20T00:18:33.737Z,25.03
2018-07-20T00:20:27.623Z,25.03
2018-07-20T00:21:27.611Z,25.11
2018-07-20T00:23:20.551Z,25.04
2018-07-20T00:24:20.483Z,24.99
2018-07-20T00:26:13.371Z,25.06
2018-07-20T00:27:13.359Z,25.00
2018-07-20T00:29:06.257Z,25.00
2018-07-20T00:30:06.240Z,25.07
2018-07-20T00:31:59.119Z,25.01
2018-07-20T00:32:59.120Z,24.96
2018-07-20T00:34:52.999Z,25.01
2018-07-20T00:35:53.012Z,24.99
2018-07-20T00:37:45.863Z,25.06
2018-07-20T00:38:45.854Z,25.09
2018-07-20T00:40:38.752Z,25.11
2018-07-20T00:41:38.734Z,25.00
2018-07-20T00:43:31.617Z,24.93
2018-07-20T00:44:31.606Z,24.97
2018-07-20T00:46:24.500Z,24.93
2018-07-20T00:47:24.478Z,24.96
2018-07-20T00:49:17.373Z,24.96
2018-07-20T00:50:17.353Z,25.11
2018-07-20T00:52:10.242Z,24.97
2018-07-20T00:53:10.231Z,25.01
2018-07-20T00:55:03.630Z,24.99
2018-07-20T00:56:03.607Z,24.99
2018-07-20T00:57:56.493Z,24.97
2018-07-20T00:58:56.485Z,25.06
2018-07-20T01:00:49.379Z,24.99
2018-07-20T01:01:49.362Z,24.94
2018-07-20T01:03:42.243Z,24.99
2018-07-20T01:04:42.237Z,24.94
2018-07-20T01:06:35.135Z,24.97
2018-07-20T01:07:35.109Z,25.00
2018-07-20T01:09:28.022Z,24.94
2018-07-20T01:10:27.986Z,24.99
2018-07-20T01:12:20.872Z,24.96
2018-07-20T01:13:20.864Z,24.93
2018-07-20T01:15:13.759Z,24.93
2018-07-20T01:16:13.740Z,24.92
2018-07-20T01:18:06.624Z,24.85
2018-07-20T01:19:06.618Z,24.96
2018-07-20T01:20:59.523Z,24.96
2018-07-20T01:21:59.490Z,24.89
2018-07-20T01:23:52.376Z,24.82
2018-07-20T01:24:52.372Z,24.84
2018-07-20T01:26:45.267Z,24.93
2018-07-20T01:27:45.247Z,24.78
2018-07-20T01:29:38.202Z,24.82
2018-07-20T01:30:38.128Z,24.92
2018-07-20T01:32:31.043Z,24.85
2018-07-20T01:33:30.997Z,24.93
2018-07-20T01:35:23.896Z,24.85
2018-07-20T01:36:23.895Z,24.88
2018-07-20T01:38:16.764Z,24.92
2018-07-20T01:39:16.750Z,24.79
2018-07-20T01:41:09.643Z,24.82
2018-07-20T01:42:09.619Z,24.79
2018-07-20T01:44:02.510Z,24.88
2018-07-20T01:45:02.511Z,24.89
2018-07-20T01:46:55.411Z,24.86
2018-07-20T01:47:55.389Z,24.84
2018-07-20T01:49:48.279Z,24.84
2018-07-20T01:50:48.258Z,24.79
2018-07-20T01:52:41.142Z,24.86
2018-07-20T01:53:41.135Z,24.84
2018-07-20T01:55:34.030Z,24.85
2018-07-20T01:56:34.010Z,24.69
2018-07-20T01:58:26.890Z,24.74
2018-07-20T01:59:26.878Z,24.84
2018-07-20T02:01:20.279Z,24.79
2018-07-20T02:02:20.260Z,24.84
2018-07-20T02:04:13.144Z,24.82
2018-07-20T02:05:13.138Z,24.85
2018-07-20T02:07:06.038Z,24.75
2018-07-20T02:08:06.043Z,24.84
2018-07-20T02:10:00.461Z,24.86
2018-07-20T02:10:59.923Z,24.77
2018-07-20T02:12:54.065Z,24.78
2018-07-20T02:13:53.866Z,24.75
2018-07-20T02:15:46.775Z,24.78
2018-07-20T02:16:46.753Z,24.71
2018-07-20T02:18:40.660Z,24.75
2018-07-20T02:19:40.652Z,24.77
2018-07-20T02:21:33.661Z,24.75
2018-07-20T02:22:33.540Z,24.74
2018-07-20T02:24:26.427Z,24.78
2018-07-20T02:25:26.417Z,24.81
2018-07-20T02:27:20.315Z,24.74
2018-07-20T02:28:20.291Z,24.69
2018-07-20T02:30:14.198Z,24.69
2018-07-20T02:31:14.179Z,24.69
2018-07-20T02:33:07.068Z,24.69
2018-07-20T02:34:07.057Z,24.74
2018-07-20T02:35:59.968Z,24.78
2018-07-20T02:36:59.952Z,24.65
2018-07-20T02:38:52.834Z,24.78
2018-07-20T02:39:52.842Z,24.71
2018-07-20T02:41:45.719Z,24.66
2018-07-20T02:42:45.706Z,24.68
2018-07-20T02:44:38.593Z,24.74
2018-07-20T02:45:38.583Z,24.69
2018-07-20T02:47:31.476Z,24.69
2018-07-20T02:51:22.733Z,24.71
2018-07-20T02:52:22.743Z,24.65
2018-07-20T02:54:15.605Z,24.69
2018-07-20T02:55:15.593Z,24.69
2018-07-20T02:56:15.593Z,24.68
2018-07-20T02:57:15.584Z,24.62
2018-07-20T02:58:15.575Z,24.68
2018-07-20T02:59:15.575Z,24.66
2018-07-20T03:00:15.571Z,24.66
2018-07-20T03:01:16.095Z,24.65
2018-07-20T03:02:15.608Z,24.68
2018-07-20T03:03:15.553Z,24.65
2018-07-20T03:04:15.549Z,24.66
2018-07-20T03:05:15.545Z,24.63
2018-07-20T03:06:15.544Z,24.66
2018-07-20T03:07:15.537Z,24.66
2018-07-20T03:08:15.522Z,24.59
2018-07-20T03:09:15.526Z,24.62
2018-07-20T03:10:15.521Z,24.68
2018-07-20T03:11:15.516Z,24.63
2018-07-20T03:12:15.509Z,24.65
2018-07-20T03:13:15.505Z,24.62
2018-07-20T03:14:15.499Z,24.61
2018-07-20T03:15:15.496Z,24.61
2018-07-20T03:16:15.487Z,24.61
2018-07-20T03:17:15.484Z,24.61
2018-07-20T03:18:15.478Z,24.61
2018-07-20T03:19:15.473Z,24.61
2018-07-20T03:20:15.468Z,24.63
2018-07-20T03:21:15.466Z,24.61
2018-07-20T03:22:15.461Z,24.63
2018-07-20T03:23:15.449Z,24.65
2018-07-20T03:24:15.450Z,24.61
2018-07-20T03:25:15.441Z,24.63
2018-07-20T03:26:15.439Z,24.61
2018-07-20T03:27:15.439Z,24.58
2018-07-20T03:28:15.429Z,24.63
2018-07-20T03:29:15.489Z,24.62
2018-07-20T03:30:15.418Z,24.61
2018-07-20T03:31:15.411Z,24.65
2018-07-20T03:32:15.406Z,24.62
2018-07-20T03:33:15.401Z,24.65
2018-07-20T03:34:15.404Z,24.68
2018-07-20T03:35:26.522Z,24.65
2018-07-20T03:36:15.393Z,24.65
2018-07-20T03:37:15.384Z,24.66
2018-07-20T03:38:15.377Z,24.65
2018-07-20T03:39:15.372Z,24.71
2018-07-20T03:40:15.364Z,24.63
2018-07-20T03:41:15.363Z,24.68
2018-07-20T03:42:15.355Z,24.66
2018-07-20T03:43:15.349Z,24.69
2018-07-20T03:44:15.361Z,24.71
2018-07-20T03:45:15.338Z,24.74
2018-07-20T03:46:15.334Z,24.68
2018-07-20T03:47:15.327Z,24.66
2018-07-20T03:48:15.321Z,24.69
2018-07-20T03:49:15.316Z,24.71
2018-07-20T03:50:15.311Z,24.68
2018-07-20T03:51:15.309Z,24.71
2018-07-20T03:52:15.310Z,24.78
2018-07-20T03:53:15.293Z,24.71
2018-07-20T03:54:15.287Z,24.81
2018-07-20T03:55:15.284Z,24.71
2018-07-20T03:56:15.274Z,24.77
2018-07-20T03:57:15.269Z,24.79
2018-07-20T03:58:15.264Z,24.82
2018-07-20T03:59:15.255Z,24.82
2018-07-20T04:00:15.253Z,24.85
2018-07-20T04:01:15.245Z,24.85
2018-07-20T04:02:15.239Z,24.89
2018-07-20T04:03:15.232Z,24.84
2018-07-20T04:04:15.225Z,24.84
2018-07-20T04:05:15.221Z,24.84
2018-07-20T04:06:15.214Z,24.85
2018-07-20T04:07:15.207Z,24.82
2018-07-20T04:08:15.201Z,24.85
2018-07-20T04:09:15.193Z,24.94
2018-07-20T04:10:15.263Z,24.85
2018-07-20T04:11:15.180Z,24.88
2018-07-20T04:12:15.179Z,24.92
2018-07-20T04:13:15.170Z,24.85
2018-07-20T04:14:15.166Z,24.93
2018-07-20T04:15:15.157Z,24.81
2018-07-20T04:16:15.150Z,24.89
2018-07-20T04:17:15.145Z,24.84
2018-07-20T04:18:15.137Z,24.89
2018-07-20T04:19:15.129Z,24.85
2018-07-20T04:20:15.123Z,24.92
2018-07-20T04:21:15.121Z,24.88
2018-07-20T04:22:15.112Z,24.88
2018-07-20T04:23:15.103Z,24.89
2018-07-20T04:24:15.096Z,24.84
2018-07-20T04:25:15.096Z,24.84
2018-07-20T04:26:15.086Z,24.82
2018-07-20T04:27:15.081Z,24.82
2018-07-20T04:28:15.071Z,24.82
2018-07-20T04:29:15.066Z,24.84
2018-07-20T04:30:15.060Z,24.88
2018-07-20T04:31:15.053Z,24.84
2018-07-20T04:32:15.047Z,24.84
2018-07-20T04:33:15.039Z,24.81
2018-07-20T04:34:15.035Z,24.86
2018-07-20T04:35:15.032Z,24.82
2018-07-20T04:36:15.056Z,24.84
2018-07-20T04:37:15.014Z,24.79
2018-07-20T04:38:15.007Z,24.84
2018-07-20T04:39:15.002Z,24.84
2018-07-20T04:40:14.993Z,24.82
2018-07-20T04:41:14.988Z,24.79
2018-07-20T04:42:14.981Z,24.75
2018-07-20T04:43:14.974Z,24.82
2018-07-20T04:44:14.969Z,24.82
2018-07-20T04:45:14.961Z,24.81
2018-07-20T04:46:14.955Z,24.75
2018-07-20T04:47:14.946Z,24.78
2018-07-20T04:48:14.947Z,24.79
2018-07-20T04:49:14.936Z,24.81
2018-07-20T04:50:14.927Z,24.81
2018-07-20T04:51:14.922Z,24.68
2018-07-20T04:52:14.918Z,24.79
2018-07-20T04:53:14.910Z,24.81
2018-07-20T04:54:14.902Z,24.78
2018-07-20T04:55:14.897Z,24.77
2018-07-20T04:56:14.890Z,24.79
2018-07-20T04:57:14.883Z,24.75
2018-07-20T04:58:14.876Z,24.81
2018-07-20T04:59:14.870Z,24.79
2018-07-20T05:00:14.863Z,24.82
2018-07-20T05:01:14.862Z,24.71
2018-07-20T05:02:14.851Z,24.86
2018-07-20T05:03:14.842Z,24.79
2018-07-20T05:04:14.836Z,24.69
2018-07-20T05:05:14.829Z,24.79
2018-07-20T05:06:14.825Z,24.79
2018-07-20T05:07:14.818Z,24.69
2018-07-20T05:08:14.812Z,24.82
2018-07-20T05:09:14.805Z,24.84
2018-07-20T05:10:14.799Z,24.84
2018-07-20T05:11:14.790Z,24.82
2018-07-20T05:12:14.786Z,24.86
2018-07-20T05:13:14.777Z,24.82
2018-07-20T05:14:14.771Z,24.85
2018-07-20T05:15:14.768Z,24.81
2018-07-20T05:16:14.758Z,24.85
2018-07-20T05:17:14.753Z,24.79
2018-07-20T05:18:14.746Z,24.79
2018-07-20T05:19:14.740Z,24.85
2018-07-20T05:20:14.732Z,24.84
2018-07-20T05:21:14.726Z,24.81
2018-07-20T05:22:14.720Z,24.88
2018-07-20T05:23:14.713Z,24.78
2018-07-20T05:24:14.796Z,24.92
2018-07-20T05:25:14.700Z,24.88
2018-07-20T05:26:14.696Z,24.92
2018-07-20T05:27:14.688Z,24.96
2018-07-20T05:28:14.680Z,24.88
2018-07-20T05:29:14.674Z,24.81
2018-07-20T05:30:14.671Z,24.88
2018-07-20T05:31:14.661Z,24.94
2018-07-20T05:32:14.654Z,24.86
2018-07-20T05:33:14.648Z,24.96
2018-07-20T05:34:14.641Z,24.96
2018-07-20T05:35:14.633Z,24.99
2018-07-20T05:36:14.633Z,24.99
2018-07-20T05:37:14.623Z,24.97
2018-07-20T05:38:14.665Z,25.00
2018-07-20T05:39:14.609Z,25.04
2018-07-20T05:40:14.605Z,24.99
2018-07-20T05:41:14.595Z,25.00
2018-07-20T05:42:14.590Z,25.00
2018-07-20T05:43:14.583Z,24.97
2018-07-20T05:44:14.577Z,25.00
2018-07-20T05:45:14.570Z,25.01
2018-07-20T05:46:14.564Z,25.03
2018-07-20T05:47:14.556Z,25.07
2018-07-20T05:48:14.551Z,25.04
2018-07-20T05:49:14.544Z,25.03
2018-07-20T05:50:14.536Z,25.04
2018-07-20T05:51:14.529Z,24.97
2018-07-20T05:52:14.523Z,25.07
2018-07-20T05:53:14.517Z,25.00
2018-07-20T05:54:14.510Z,25.09
2018-07-20T05:55:14.505Z,25.04
2018-07-20T05:56:14.497Z,25.04
2018-07-20T05:57:14.492Z,25.06
2018-07-20T05:58:14.484Z,25.15
2018-07-20T05:59:14.477Z,25.07
2018-07-20T06:00:14.472Z,25.03
2018-07-20T06:01:14.465Z,25.04
2018-07-20T06:02:14.459Z,25.14
2018-07-20T06:03:14.451Z,25.11
2018-07-20T06:04:14.445Z,25.14
2018-07-20T06:05:14.439Z,25.09
2018-07-20T06:06:14.434Z,25.11
2018-07-20T06:07:14.431Z,25.16
2018-07-20T06:08:14.419Z,25.11
2018-07-20T06:09:14.427Z,25.14
2018-07-20T06:10:14.408Z,25.15
2018-07-20T06:11:14.400Z,25.11
2018-07-20T06:12:14.395Z,25.12
2018-07-20T06:13:14.389Z,25.16
2018-07-20T06:14:14.429Z,25.18
2018-07-20T06:15:14.413Z,25.26
2018-07-20T06:16:14.369Z,25.21
2018-07-20T06:17:14.365Z,25.19
2018-07-20T06:18:14.355Z,25.19
2018-07-20T06:19:14.348Z,25.19
2018-07-20T06:20:14.345Z,25.18
2018-07-20T06:21:14.337Z,25.18
2018-07-20T06:22:14.330Z,25.29
2018-07-20T06:23:14.324Z,25.18
2018-07-20T06:24:14.319Z,25.18
2018-07-20T06:25:14.313Z,25.29
2018-07-20T06:26:14.306Z,25.33
2018-07-20T06:27:14.297Z,25.26
2018-07-20T06:28:14.293Z,25.33
2018-07-20T06:29:14.286Z,25.34
2018-07-20T06:30:14.280Z,25.34
2018-07-20T06:31:14.273Z,25.34
2018-07-20T06:32:14.267Z,25.39
2018-07-20T06:33:14.260Z,25.34
2018-07-20T06:34:14.254Z,25.40
2018-07-20T06:35:14.248Z,25.49
2018-07-20T06:36:14.241Z,25.51
2018-07-20T06:37:14.256Z,25.55
2018-07-20T06:38:14.229Z,25.56
2018-07-20T06:39:14.233Z,25.56
2018-07-20T06:40:14.215Z,25.59
2018-07-20T06:41:14.210Z,25.55
2018-07-20T06:42:14.231Z,25.61
2018-07-20T06:43:14.197Z,25.62
2018-07-20T06:44:14.192Z,25.58
2018-07-20T06:45:14.185Z,25.66
2018-07-20T06:46:14.180Z,25.70
2018-07-20T06:47:14.172Z,25.63
2018-07-20T06:48:14.168Z,25.63
2018-07-20T06:49:14.161Z,25.63
2018-07-20T06:50:14.155Z,25.66
2018-07-20T06:51:14.148Z,25.67
2018-07-20T06:52:14.140Z,25.68
2018-07-20T06:53:14.137Z,25.67
2018-07-20T06:54:14.130Z,25.70
2018-07-20T06:55:14.129Z,25.76
2018-07-20T06:56:14.117Z,25.73
2018-07-20T06:57:14.113Z,25.71
2018-07-20T06:58:14.104Z,25.77
2018-07-20T06:59:14.098Z,25.71
2018-07-20T07:00:14.095Z,25.76
2018-07-20T07:01:14.087Z,25.81
2018-07-20T07:02:14.080Z,25.76
2018-07-20T07:03:14.074Z,25.71
2018-07-20T07:04:14.068Z,25.73
2018-07-20T07:05:14.064Z,25.81
2018-07-20T07:06:14.061Z,25.86
2018-07-20T07:07:14.042Z,25.88
2018-07-20T07:08:14.044Z,25.88
2018-07-20T07:09:14.039Z,25.88
2018-07-20T07:10:14.033Z,25.86
2018-07-20T07:11:14.024Z,25.85
2018-07-20T07:12:14.019Z,25.93
2018-07-20T07:13:14.013Z,25.98
2018-07-20T07:14:14.008Z,26.01
2018-07-20T07:15:14.065Z,26.03
2018-07-20T07:16:13.995Z,25.95
2018-07-20T07:17:13.990Z,25.98
2018-07-20T07:18:13.983Z,26.01
2018-07-20T07:19:13.977Z,26.04
2018-07-20T07:20:13.973Z,26.01
2018-07-20T07:21:13.965Z,25.99
2018-07-20T07:22:13.995Z,26.13
2018-07-20T07:23:13.953Z,25.99
2018-07-20T07:24:13.951Z,25.98
2018-07-20T07:25:13.941Z,26.03
2018-07-20T07:26:13.940Z,26.06
2018-07-20T07:27:13.928Z,26.03
2018-07-20T07:28:13.922Z,26.11
2018-07-20T07:29:13.931Z,26.15
2018-07-20T07:30:13.911Z,26.18
2018-07-20T07:31:13.938Z,26.15
2018-07-20T07:32:13.898Z,26.16
2018-07-20T07:33:13.893Z,26.11
2018-07-20T07:34:13.887Z,26.10
2018-07-20T07:35:13.880Z,26.13
2018-07-20T07:36:13.875Z,26.24
2018-07-20T07:37:13.877Z,26.29
2018-07-20T07:38:13.864Z,26.23
2018-07-20T07:39:13.857Z,26.30
2018-07-20T07:40:13.853Z,26.31
2018-07-20T07:41:13.845Z,26.36
2018-07-20T07:42:13.859Z,26.46
2018-07-20T07:43:13.834Z,26.39
2018-07-20T07:44:13.829Z,26.41
2018-07-20T07:45:13.823Z,26.48
2018-07-20T07:46:13.817Z,26.44
2018-07-20T07:47:13.811Z,26.49
2018-07-20T07:48:13.804Z,26.53
2018-07-20T07:49:13.852Z,26.61
2018-07-20T07:50:13.793Z,26.53
2018-07-20T07:51:13.787Z,26.64
2018-07-20T07:52:13.781Z,26.52
2018-07-20T07:53:13.776Z,26.60
2018-07-20T07:54:13.771Z,26.63
2018-07-20T07:55:13.770Z,26.64
2018-07-20T07:56:13.758Z,26.68
2018-07-20T07:57:13.751Z,26.78
2018-07-20T07:58:13.747Z,26.73
2018-07-20T07:59:13.741Z,26.82
2018-07-20T08:00:13.738Z,26.83
2018-07-20T08:01:13.728Z,26.83
2018-07-20T08:02:13.724Z,26.82
2018-07-20T08:03:13.795Z,26.83
2018-07-20T08:04:13.712Z,26.86
2018-07-20T08:05:13.709Z,26.88
2018-07-20T08:06:13.704Z,26.92
2018-07-20T08:07:13.692Z,26.83
2018-07-20T08:08:13.690Z,26.83
2018-07-20T08:09:13.688Z,26.88
2018-07-20T08:10:13.711Z,26.86
2018-07-20T08:11:13.673Z,26.93
2018-07-20T08:12:13.666Z,27.00
2018-07-20T08:13:13.662Z,26.97
2018-07-20T08:14:13.657Z,27.03
2018-07-20T08:15:13.650Z,27.05
2018-07-20T08:16:13.645Z,27.01
2018-07-20T08:17:13.640Z,27.08
2018-07-20T08:18:13.637Z,27.04
2018-07-20T08:19:13.628Z,27.10
2018-07-20T08:20:13.617Z,27.19
2018-07-20T08:21:13.617Z,27.19
2018-07-20T08:22:13.611Z,27.15
2018-07-20T08:23:13.609Z,27.23
2018-07-20T08:24:13.599Z,27.25
2018-07-20T08:25:13.596Z,27.29
2018-07-20T08:26:13.589Z,27.16
2018-07-20T08:27:13.592Z,27.19
2018-07-20T08:28:13.578Z,27.15
2018-07-20T08:29:13.573Z,27.25
2018-07-20T08:30:13.569Z,27.22
2018-07-20T08:31:13.562Z,27.23
2018-07-20T08:32:13.556Z,27.25
2018-07-20T08:33:13.552Z,27.30
2018-07-20T08:34:13.548Z,27.33
2018-07-20T08:35:13.537Z,27.37
2018-07-20T08:36:13.535Z,27.40
2018-07-20T08:37:13.528Z,27.29
2018-07-20T08:38:13.530Z,27.38
2018-07-20T08:39:13.521Z,27.38
2018-07-20T08:40:13.515Z,27.45
2018-07-20T08:41:13.599Z,27.52
2018-07-20T08:42:13.503Z,27.47
2018-07-20T08:43:13.503Z,27.52
2018-07-20T08:44:13.493Z,27.61
2018-07-20T08:45:13.487Z,27.57
2018-07-20T08:46:13.482Z,27.66
2018-07-20T08:47:13.476Z,27.64
2018-07-20T08:48:13.520Z,27.68
2018-07-20T08:49:13.466Z,27.63
2018-07-20T08:50:13.461Z,27.75
2018-07-20T08:51:13.455Z,27.75
2018-07-20T08:52:13.451Z,27.75
2018-07-20T08:53:13.446Z,27.76
2018-07-20T08:54:13.441Z,27.76
2018-07-20T08:55:13.446Z,27.79
2018-07-20T08:56:13.430Z,27.76
2018-07-20T08:57:13.424Z,27.86
2018-07-20T08:58:13.419Z,27.83
2018-07-20T08:59:13.414Z,27.97
2018-07-20T09:00:13.409Z,27.94
2018-07-20T09:01:13.415Z,28.04
2018-07-20T09:02:13.403Z,27.88
2018-07-20T09:03:13.465Z,28.04
2018-07-20T09:04:13.388Z,28.01
2018-07-20T09:05:13.386Z,28.04
2018-07-20T09:06:13.380Z,28.04
2018-07-20T09:07:13.374Z,28.03
2018-07-20T09:08:13.368Z,28.06
2018-07-20T09:09:13.362Z,28.08
2018-07-20T09:10:13.359Z,28.15
2018-07-20T09:11:13.353Z,28.13
2018-07-20T09:12:13.353Z,28.15
2018-07-20T09:13:13.344Z,28.06
2018-07-20T09:14:13.341Z,28.12
2018-07-20T09:15:13.333Z,28.09
2018-07-20T09:16:13.327Z,28.13
2018-07-20T09:17:13.325Z,28.19
2018-07-20T09:18:13.325Z,28.20
2018-07-20T09:19:13.313Z,28.16
2018-07-20T09:20:13.310Z,28.23
2018-07-20T09:21:13.304Z,28.25
2018-07-20T09:22:13.299Z,28.30
2018-07-20T09:23:13.297Z,28.38
2018-07-20T09:24:13.288Z,28.35
2018-07-20T09:25:13.287Z,28.34
2018-07-20T09:26:13.280Z,28.35
2018-07-20T09:27:13.273Z,28.34
2018-07-20T09:28:13.273Z,28.37
2018-07-20T09:29:13.265Z,28.37
2018-07-20T09:30:13.264Z,28.47
2018-07-20T09:31:13.255Z,28.52
2018-07-20T09:32:13.249Z,28.53
2018-07-20T09:33:13.247Z,28.53
2018-07-20T09:34:13.306Z,28.46
2018-07-20T09:35:13.235Z,28.53
2018-07-20T09:36:13.233Z,28.57
2018-07-20T09:37:13.228Z,28.59
2018-07-20T09:38:13.220Z,28.59
2018-07-20T09:39:13.219Z,28.57
2018-07-20T09:40:13.213Z,28.65
2018-07-20T09:41:13.208Z,28.57
2018-07-20T09:42:13.204Z,28.60
2018-07-20T09:43:13.200Z,28.64
2018-07-20T09:44:13.210Z,28.60
2018-07-20T09:45:13.189Z,28.59
2018-07-20T09:46:13.185Z,28.62
2018-07-20T09:47:13.179Z,28.68
2018-07-20T09:48:13.182Z,28.65
2018-07-20T09:49:13.172Z,28.70
2018-07-20T09:50:13.171Z,28.71
2018-07-20T09:51:13.161Z,28.68
2018-07-20T09:52:13.164Z,28.72
2018-07-20T09:53:13.157Z,28.78
2018-07-20T09:54:13.148Z,28.74
2018-07-20T09:55:13.142Z,28.78
2018-07-20T09:56:13.139Z,28.78
2018-07-20T09:57:13.131Z,28.82
2018-07-20T09:58:13.128Z,28.83
2018-07-20T09:59:13.124Z,28.84
2018-07-20T10:00:13.120Z,28.86
2018-07-20T10:01:13.117Z,28.90
2018-07-20T10:02:13.114Z,28.87
2018-07-20T10:03:13.106Z,28.84
2018-07-20T10:04:13.101Z,28.89
2018-07-20T10:05:13.097Z,28.87
2018-07-20T10:06:13.094Z,28.90
2018-07-20T10:07:13.195Z,28.93
2018-07-20T10:08:13.088Z,28.94
2018-07-20T10:09:13.137Z,28.94
2018-07-20T10:10:13.076Z,29.02
2018-07-20T10:11:13.070Z,29.00
2018-07-20T10:12:13.067Z,29.05
2018-07-20T10:13:13.062Z,29.02
2018-07-20T10:14:13.058Z,29.05
2018-07-20T10:15:13.054Z,28.97
2018-07-20T10:16:13.073Z,29.02
2018-07-20T10:17:13.044Z,29.10
2018-07-20T10:18:13.044Z,29.10
2018-07-20T10:19:13.057Z,29.09
2018-07-20T10:20:13.038Z,29.06
2018-07-20T10:21:13.028Z,29.10
2018-07-20T10:22:13.024Z,29.10
2018-07-20T10:23:13.018Z,29.13
2018-07-20T10:24:13.013Z,29.13
2018-07-20T10:25:13.010Z,29.16
2018-07-20T10:26:13.006Z,29.10
2018-07-20T10:27:13.001Z,29.10
2018-07-20T10:28:12.997Z,29.12
2018-07-20T10:29:12.994Z,29.13
2018-07-20T10:30:12.989Z,29.21
2018-07-20T10:31:12.983Z,29.12
2018-07-20T10:32:12.979Z,29.12
2018-07-20T10:33:12.976Z,29.12
2018-07-20T10:34:12.972Z,29.13
2018-07-20T10:35:12.966Z,29.13
2018-07-20T10:36:12.963Z,29.15
2018-07-20T10:37:12.958Z,29.20
2018-07-20T10:38:12.948Z,29.15
2018-07-20T10:39:12.950Z,29.20
2018-07-20T10:40:12.944Z,29.28
2018-07-20T10:41:12.944Z,29.22
2018-07-20T10:42:12.937Z,29.25
2018-07-20T10:43:12.948Z,29.25
2018-07-20T10:44:13.095Z,29.32
2018-07-20T10:45:12.924Z,29.21
2018-07-20T10:46:12.919Z,29.28
2018-07-20T10:47:12.915Z,29.27
2018-07-20T10:48:12.911Z,29.31
2018-07-20T10:49:12.905Z,29.28
2018-07-20T10:50:12.902Z,29.30
2018-07-20T10:51:12.925Z,29.24
2018-07-20T10:52:12.944Z,29.32
2018-07-20T10:53:12.895Z,29.34
2018-07-20T10:54:12.886Z,29.21
2018-07-20T10:55:12.880Z,29.27
2018-07-20T10:56:12.877Z,29.42
2018-07-20T10:57:12.889Z,29.22
2018-07-20T10:58:12.869Z,29.30
2018-07-20T10:59:12.911Z,29.25
2018-07-20T11:00:12.860Z,29.24
2018-07-20T11:01:12.856Z,29.31
2018-07-20T11:02:12.846Z,29.24
2018-07-20T11:03:12.847Z,29.27
2018-07-20T11:04:12.886Z,29.31
2018-07-20T11:05:12.840Z,29.30
2018-07-20T11:06:12.836Z,29.25
2018-07-20T11:07:12.831Z,29.25
2018-07-20T11:08:12.826Z,29.31
2018-07-20T11:09:12.823Z,29.27
2018-07-20T11:10:12.817Z,29.31
2018-07-20T11:11:12.816Z,29.27
2018-07-20T11:12:12.812Z,29.31
2018-07-20T11:13:12.806Z,29.28
2018-07-20T11:14:12.801Z,29.27
2018-07-20T11:15:12.796Z,29.28
2018-07-20T11:16:12.792Z,29.27
2018-07-20T11:17:12.791Z,29.34
2018-07-20T11:18:12.784Z,29.30
2018-07-20T11:19:12.789Z,29.27
2018-07-20T11:20:12.779Z,29.30
2018-07-20T11:21:12.773Z,29.30
2018-07-20T11:22:12.775Z,29.30
2018-07-20T11:23:12.768Z,29.25
2018-07-20T11:24:12.759Z,29.37
2018-07-20T11:25:12.759Z,29.28
2018-07-20T11:26:12.751Z,29.28
2018-07-20T11:27:12.747Z,29.31
2018-07-20T11:28:12.747Z,29.27
2018-07-20T11:29:12.739Z,29.28
2018-07-20T11:30:12.740Z,29.35
2018-07-20T11:31:12.731Z,29.27
2018-07-20T11:32:12.968Z,29.35
2018-07-20T11:33:12.723Z,29.28
2018-07-20T11:34:12.719Z,29.24
2018-07-20T11:35:12.715Z,29.30
2018-07-20T11:36:12.710Z,29.28
2018-07-20T11:37:12.705Z,29.32
2018-07-20T11:38:12.702Z,29.27
2018-07-20T11:39:12.697Z,29.34
2018-07-20T11:40:12.696Z,29.28
2018-07-20T11:41:12.688Z,29.30
2018-07-20T11:42:12.685Z,29.24
2018-07-20T11:43:12.681Z,29.25
2018-07-20T11:44:12.680Z,29.30
2018-07-20T11:45:12.674Z,29.27
2018-07-20T11:46:12.670Z,29.28
2018-07-20T11:47:12.667Z,29.25
2018-07-20T11:48:12.659Z,29.25
2018-07-20T11:49:12.669Z,29.24
2018-07-20T11:50:12.654Z,29.25
2018-07-20T11:51:12.649Z,29.25
2018-07-20T11:52:12.643Z,29.27
2018-07-20T11:53:12.640Z,29.31
2018-07-20T11:54:12.937Z,29.31
2018-07-20T11:55:12.632Z,29.35
2018-07-20T11:56:12.628Z,29.21
2018-07-20T11:57:12.622Z,29.27
2018-07-20T11:58:12.622Z,29.30
2018-07-20T11:59:12.617Z,29.35
2018-07-20T12:00:12.610Z,29.31
2018-07-20T12:01:12.607Z,29.34
2018-07-20T12:02:12.603Z,29.27
2018-07-20T12:03:12.598Z,29.30
2018-07-20T12:04:12.595Z,29.28
2018-07-20T12:05:12.590Z,29.25
2018-07-20T12:06:12.588Z,29.28
2018-07-20T12:07:12.583Z,29.27
2018-07-20T12:08:12.577Z,29.25
2018-07-20T12:09:12.573Z,29.30
2018-07-20T12:10:12.569Z,29.28
2018-07-20T12:11:12.565Z,29.18
2018-07-20T12:12:12.564Z,29.22
2018-07-20T12:13:12.572Z,29.16
2018-07-20T12:14:12.564Z,29.30
2018-07-20T12:15:12.547Z,29.25
2018-07-20T12:16:12.544Z,29.15
2018-07-20T12:17:12.540Z,29.18
2018-07-20T12:18:12.535Z,29.15
2018-07-20T12:19:12.531Z,29.16
2018-07-20T12:20:12.527Z,29.13
2018-07-20T12:21:12.525Z,29.13
2018-07-20T12:22:12.520Z,29.21
2018-07-20T12:23:12.514Z,29.24
2018-07-20T12:24:12.511Z,29.15
2018-07-20T12:25:12.506Z,29.12
2018-07-20T12:26:12.504Z,29.12
2018-07-20T12:27:12.499Z,29.16
2018-07-20T12:28:12.524Z,29.16
2018-07-20T12:29:12.491Z,29.13
2018-07-20T12:30:12.486Z,29.16
2018-07-20T12:31:12.480Z,29.12
2018-07-20T12:32:12.476Z,29.12
2018-07-20T12:33:12.472Z,29.18
2018-07-20T12:34:12.472Z,29.18
2018-07-20T12:35:12.464Z,29.13
2018-07-20T12:36:12.463Z,29.15
2018-07-20T12:37:12.456Z,29.10
2018-07-20T12:38:12.452Z,29.10
2018-07-20T12:39:12.453Z,29.12
2018-07-20T12:40:12.442Z,29.10
2018-07-20T12:41:12.451Z,29.09
2018-07-20T12:42:12.470Z,29.06
2018-07-20T12:43:12.462Z,29.07
2018-07-20T12:44:12.440Z,29.02
2018-07-20T12:45:12.423Z,29.02
2018-07-20T12:46:12.417Z,29.07
2018-07-20T12:47:12.413Z,28.96
2018-07-20T12:48:12.410Z,28.93
2018-07-20T12:49:12.404Z,28.90
2018-07-20T12:50:12.688Z,29.06
2018-07-20T12:51:12.401Z,28.93
2018-07-20T12:52:12.399Z,29.09
2018-07-20T12:53:12.390Z,29.00
2018-07-20T12:54:12.387Z,29.06
2018-07-20T12:55:12.381Z,28.94
2018-07-20T12:56:12.375Z,29.02
2018-07-20T12:57:12.386Z,28.96
2018-07-20T12:58:12.418Z,28.92
2018-07-20T12:59:12.365Z,28.93
2018-07-20T13:00:12.361Z,28.94
2018-07-20T13:01:12.362Z,28.96
2018-07-20T13:02:12.351Z,28.94
2018-07-20T13:03:12.350Z,28.92
2018-07-20T13:04:12.350Z,28.87
2018-07-20T13:05:12.336Z,28.89
2018-07-20T13:06:12.333Z,28.87
2018-07-20T13:07:12.329Z,28.90
2018-07-20T13:08:12.324Z,28.84
2018-07-20T13:09:12.319Z,28.84
2018-07-20T13:10:12.314Z,28.89
2018-07-20T13:11:12.311Z,28.89
2018-07-20T13:12:12.396Z,28.89
2018-07-20T13:13:12.301Z,28.86
2018-07-20T13:14:12.298Z,28.83
2018-07-20T13:15:12.299Z,28.82
2018-07-20T13:16:12.294Z,28.86
2018-07-20T13:17:12.286Z,28.82
2018-07-20T13:18:12.435Z,28.90
2018-07-20T13:19:12.278Z,28.82
2018-07-20T13:20:12.277Z,28.82
2018-07-20T13:21:12.267Z,28.84
2018-07-20T13:22:12.266Z,28.83
2018-07-20T13:23:12.264Z,28.86
2018-07-20T13:24:12.253Z,28.86
2018-07-20T13:25:12.253Z,28.84
2018-07-20T13:26:12.247Z,28.82
2018-07-20T13:27:12.243Z,28.80
2018-07-20T13:28:12.239Z,28.86
2018-07-20T13:29:12.237Z,28.83
2018-07-20T13:30:12.231Z,28.82
2018-07-20T13:31:12.223Z,28.86
2018-07-20T13:32:12.220Z,28.87
2018-07-20T13:33:12.222Z,28.84
2018-07-20T13:34:12.214Z,28.83
2018-07-20T13:35:12.209Z,28.82
2018-07-20T13:36:12.205Z,28.84
2018-07-20T13:37:12.201Z,28.87
2018-07-20T13:38:12.196Z,28.87
2018-07-20T13:39:12.187Z,28.84
2018-07-20T13:40:12.187Z,28.90
2018-07-20T13:41:12.180Z,28.83
2018-07-20T13:42:12.178Z,28.83
2018-07-20T13:43:12.174Z,28.86
2018-07-20T13:44:12.170Z,28.83
2018-07-20T13:45:12.166Z,28.86
2018-07-20T13:46:12.160Z,28.80
2018-07-20T13:47:12.156Z,28.82